»·PEaware :: N41G KSNA-KWJF

N41G :: KSNA-KWJF

FLIGHT INFORMATION

Flight Status: Arrived
Operator: Privately registered:
United States
More flights under this callsign
Pilot: Alec D. (17934)
Aircraft: BEECH AIRCRAFT BONANZA
(BE35)
More flights by this aircraft type
Origin: KSNA John Wayne-Orange Co
United States
Destination: KWJF Gen Fox
United States
More flights between these airports :: More routes between these airports
Route: MUSEL8 SLI V459 BERRI V201 PMD
File this flight plan on PilotEdge
Remarks:
Altitude:
(Current/Filed)
10,000ft
Speed:
(Current/Filed)
160kts
Departed: 23-Mar-20 05:02 PM
Arrived: 23-Mar-20 05:54 PM
Distance/Time
Traveled:
66nm/0:52
Distance/Time
To Go:
Arrived

Flight Plot

Page will automatically refresh every two minutes.

Flight plan parsing failed; only flown route is shown


Map Options




Map Legend


Flown Route
Filed Route
Departure Airport
Arrival Airport
Navaid (VOR, NDB)
Fix

Horizontal Profiles

Position Reports

Time Latitude Longitude Heading Altitude Ground
Speed
23-Mar-20 16:39 33.666435 -117.873047 219 59ft 0kts
23-Mar-20 16:40 33.666435 -117.873047 219 59ft 0kts
23-Mar-20 16:41 33.666432 -117.873050 219 59ft 0kts
23-Mar-20 16:42 33.666426 -117.873056 219 59ft 0kts
23-Mar-20 16:43 33.666420 -117.873062 219 59ft 0kts
23-Mar-20 16:44 33.666414 -117.873068 219 59ft 0kts
23-Mar-20 16:45 33.666410 -117.873072 219 59ft 0kts
23-Mar-20 16:46 33.666405 -117.873076 219 59ft 0kts
23-Mar-20 16:47 33.666401 -117.873081 219 59ft 0kts
23-Mar-20 16:47 33.666397 -117.873084 219 59ft 0kts
23-Mar-20 16:49 33.666392 -117.873089 219 59ft 0kts
23-Mar-20 16:50 33.666388 -117.873094 219 59ft 0kts
23-Mar-20 16:50 33.667133 -117.872957 31 59ft 11kts
23-Mar-20 16:52 33.671419 -117.869035 39 59ft 20kts
23-Mar-20 16:53 33.674382 -117.866830 28 59ft 10kts
23-Mar-20 16:53 33.678066 -117.864661 25 59ft 21kts
23-Mar-20 16:54 33.679035 -117.864092 41 59ft 0kts
23-Mar-20 16:56 33.679045 -117.864081 41 59ft 0kts
23-Mar-20 16:56 33.679049 -117.864077 41 59ft 0kts
23-Mar-20 16:57 33.679683 -117.863785 320 59ft 2kts
23-Mar-20 16:58 33.679814 -117.864101 293 59ft 10kts
23-Mar-20 16:59 33.680409 -117.865843 209 59ft 5kts
23-Mar-20 17:00 33.680345 -117.865881 206 59ft 0kts
23-Mar-20 17:01 33.664565 -117.876025 208 581ft 98kts
23-Mar-20 17:02 33.637496 -117.887280 191 1971ft 106kts
23-Mar-20 17:03 33.607657 -117.892121 192 3390ft 113kts
23-Mar-20 17:04 33.576626 -117.896457 190 4899ft 113kts
23-Mar-20 17:05 33.545088 -117.900417 191 5971ft 114kts
23-Mar-20 17:06 33.513028 -117.904426 191 6927ft 116kts
23-Mar-20 17:07 33.480532 -117.907770 189 7845ft 116kts
23-Mar-20 17:08 33.470055 -117.930294 281 8691ft 99kts
23-Mar-20 17:09 33.475369 -117.964337 281 9426ft 105kts
23-Mar-20 17:10 33.481261 -117.999463 282 9984ft 120kts
23-Mar-20 17:11 33.488758 -118.042833 298 10002ft 139kts
23-Mar-20 17:12 33.528236 -118.048038 355 10001ft 151kts
23-Mar-20 17:13 33.570488 -118.048473 353 10001ft 151kts
23-Mar-20 17:14 33.612987 -118.049647 354 9990ft 154kts
23-Mar-20 17:15 33.655776 -118.050925 353 9994ft 154kts
23-Mar-20 17:16 33.698703 -118.052195 352 9988ft 154kts
23-Mar-20 17:17 33.741547 -118.053504 354 9994ft 154kts
23-Mar-20 17:18 33.786335 -118.056646 335 9984ft 160kts
23-Mar-20 17:19 33.827016 -118.079867 331 9984ft 161kts
23-Mar-20 17:20 33.865805 -118.102121 330 9993ft 151kts
23-Mar-20 17:21 33.903559 -118.123852 330 9987ft 149kts
23-Mar-20 17:22 33.941064 -118.145438 330 9989ft 149kts
23-Mar-20 17:23 33.979182 -118.167422 331 9993ft 153kts
23-Mar-20 17:24 34.017201 -118.189327 330 9995ft 149kts
23-Mar-20 17:25 34.054700 -118.210981 330 10004ft 148kts
23-Mar-20 17:26 34.092058 -118.232572 330 10012ft 148kts
23-Mar-20 17:27 34.129479 -118.254244 330 10003ft 149kts
23-Mar-20 17:28 34.166960 -118.275932 330 10000ft 149kts
23-Mar-20 17:29 34.207693 -118.288048 19 10004ft 168kts
23-Mar-20 17:30 34.249450 -118.265919 18 10004ft 161kts
23-Mar-20 17:31 34.290432 -118.244367 18 9996ft 160kts
23-Mar-20 17:32 34.332654 -118.222089 19 9995ft 167kts
23-Mar-20 17:33 34.374322 -118.200085 19 9987ft 161kts
23-Mar-20 17:34 34.415242 -118.178461 18 10017ft 160kts
23-Mar-20 17:35 34.440382 -118.133790 63 10017ft 169kts
23-Mar-20 17:36 34.459762 -118.081586 53 10012ft 167kts
23-Mar-20 17:37 34.491750 -118.038431 45 9487ft 176kts
23-Mar-20 17:38 34.525005 -117.994615 44 8878ft 176kts
23-Mar-20 17:39 34.557963 -117.951508 44 8205ft 173kts
23-Mar-20 17:40 34.590969 -117.908675 43 7446ft 174kts
23-Mar-20 17:41 34.628968 -117.875149 23 6648ft 167kts
23-Mar-20 17:42 34.670327 -117.850381 24 5828ft 164kts
23-Mar-20 17:43 34.700568 -117.874027 293 5328ft 145kts
23-Mar-20 17:44 34.717824 -117.917715 293 5285ft 141kts
23-Mar-20 17:45 34.730971 -117.964962 275 5271ft 149kts
23-Mar-20 17:46 34.735749 -118.011392 276 5282ft 132kts
23-Mar-20 17:47 34.739811 -118.051116 275 5000ft 107kts
23-Mar-20 17:48 34.743341 -118.085639 271 4410ft 101kts
23-Mar-20 17:49 34.746647 -118.118336 272 3854ft 94kts
23-Mar-20 17:50 34.749515 -118.149712 274 3332ft 90kts
23-Mar-20 17:51 34.751021 -118.177642 259 2849ft 73kts
23-Mar-20 17:52 34.745939 -118.200474 251 2507ft 71kts
23-Mar-20 17:53 34.741867 -118.214955 217 2351ft 9kts
23-Mar-20 17:54 34.741050 -118.215353 208 2351ft 1kts
23-Mar-20 17:55 34.739985 -118.216726 158 2351ft 10kts
23-Mar-20 17:56 34.738951 -118.216325 67 2351ft 0kts
23-Mar-20 17:57 34.738952 -118.216324 67 2351ft 0kts
23-Mar-20 17:58 34.738952 -118.216324 67 2351ft 0kts
23-Mar-20 17:59 34.738952 -118.216324 67 2351ft 0kts
23-Mar-20 18:00 34.738952 -118.216324 67 2351ft 0kts

Navigation Log

Ident Type
Flight plan parsing failed, navigation log unavailable